createdAt,value
2023-11-30T00:04:20.179Z,950.02
2023-11-30T00:09:22.338Z,950.05
2023-11-30T00:14:24.427Z,950.01
2023-11-30T00:19:26.246Z,950.05
2023-11-30T00:24:27.947Z,950.07
2023-11-30T00:29:29.830Z,950.18
2023-11-30T00:34:31.667Z,950.2
2023-11-30T00:39:33.796Z,950.32
2023-11-30T00:44:35.074Z,950.34
2023-11-30T00:49:36.890Z,950.23
2023-11-30T00:54:38.753Z,950.09
2023-11-30T00:59:40.356Z,950.13
2023-11-30T01:04:41.844Z,950.18
2023-11-30T01:09:43.883Z,950.16
2023-11-30T01:14:45.855Z,950.19
2023-11-30T01:19:47.133Z,950.19
2023-11-30T01:24:49.281Z,950.17
2023-11-30T01:29:51.438Z,950.23
2023-11-30T01:34:53.237Z,950.13
2023-11-30T01:39:54.498Z,950.2
2023-11-30T01:44:56.387Z,950.19
2023-11-30T01:49:57.741Z,950
2023-11-30T01:54:59.043Z,949.95
2023-11-30T02:00:01.187Z,949.85
2023-11-30T02:05:02.650Z,949.84
2023-11-30T02:10:04.387Z,949.76
2023-11-30T02:15:06.482Z,949.7
2023-11-30T02:20:08.386Z,949.62
2023-11-30T02:25:09.983Z,949.66
2023-11-30T02:30:11.406Z,949.55
2023-11-30T02:35:12.817Z,949.48
2023-11-30T02:40:15.039Z,949.53
2023-11-30T02:45:16.794Z,949.42
2023-11-30T02:50:18.910Z,949.41
2023-11-30T02:55:20.876Z,949.35
2023-11-30T03:00:22.466Z,949.33
2023-11-30T03:05:23.689Z,949.34
2023-11-30T03:10:25.864Z,949.31
2023-11-30T03:15:27.919Z,949.17
2023-11-30T03:20:29.582Z,949.15
2023-11-30T03:25:31.094Z,949.18
2023-11-30T03:30:32.512Z,949
2023-11-30T03:35:33.773Z,948.97
2023-11-30T03:40:35.557Z,948.92
2023-11-30T03:45:36.946Z,948.95
2023-11-30T03:50:38.331Z,949.01
2023-11-30T03:55:39.842Z,949.22
2023-11-30T04:00:46.891Z,948.98
2023-11-30T04:05:43.198Z,949.19
2023-11-30T04:10:44.830Z,949.14
2023-11-30T04:15:46.880Z,949.03
2023-11-30T04:20:48.597Z,949.07
2023-11-30T04:25:50.317Z,949.18
2023-11-30T04:30:51.729Z,949.01
2023-11-30T04:35:53.807Z,948.82
2023-11-30T04:40:54.989Z,948.7
2023-11-30T04:45:56.498Z,948.58
2023-11-30T04:50:58.638Z,948.46
2023-11-30T04:56:00.790Z,948.53
2023-11-30T05:01:02.949Z,948.34
2023-11-30T05:06:04.405Z,948.35
2023-11-30T05:11:06.428Z,948.51
2023-11-30T05:16:08.207Z,948.49
2023-11-30T05:21:09.395Z,948.44
2023-11-30T05:26:10.650Z,948.34
2023-11-30T05:31:12.073Z,948.19
2023-11-30T05:36:14.214Z,948.35
2023-11-30T05:41:15.510Z,948.39
2023-11-30T05:46:17.616Z,948.31
2023-11-30T05:51:19.018Z,948.54
2023-11-30T05:56:20.924Z,948.55
2023-11-30T06:01:22.217Z,948.42
2023-11-30T06:06:23.414Z,948.36
2023-11-30T06:11:24.713Z,948.19
2023-11-30T06:16:26.034Z,948.2
2023-11-30T06:21:27.174Z,948.09
2023-11-30T06:26:29.302Z,948.04
2023-11-30T06:31:31.100Z,948.13
2023-11-30T06:36:32.840Z,948.13
2023-11-30T06:41:34.196Z,948.21
2023-11-30T06:46:35.993Z,948.08
2023-11-30T06:51:38.127Z,948.21
2023-11-30T06:56:39.652Z,948.04
2023-11-30T07:01:41.851Z,947.98
2023-11-30T07:06:43.680Z,947.97
2023-11-30T07:11:45.072Z,947.88
2023-11-30T07:16:46.990Z,947.96
2023-11-30T07:21:49.052Z,947.99
2023-11-30T07:26:50.352Z,947.96
2023-11-30T07:31:51.604Z,947.95
2023-11-30T07:36:53.388Z,947.82
2023-11-30T07:41:55.077Z,947.79
2023-11-30T07:46:56.797Z,947.81
2023-11-30T07:51:58.969Z,947.7
2023-11-30T07:57:00.223Z,947.7
2023-11-30T08:02:02.064Z,947.69
2023-11-30T08:07:04.214Z,947.66
2023-11-30T08:12:05.526Z,947.84
2023-11-30T08:17:07.007Z,947.74
2023-11-30T08:22:09.193Z,947.67
2023-11-30T08:27:10.744Z,947.79
2023-11-30T08:32:12.277Z,947.73
2023-11-30T08:37:13.934Z,947.73
2023-11-30T08:42:15.921Z,947.75
2023-11-30T08:47:17.422Z,947.73
2023-11-30T08:52:19.033Z,947.65
2023-11-30T08:57:20.255Z,947.63
2023-11-30T09:02:22.006Z,947.66
2023-11-30T09:07:23.940Z,947.67
2023-11-30T09:12:25.301Z,947.61
2023-11-30T09:17:26.821Z,947.72
2023-11-30T09:22:28.184Z,947.71
2023-11-30T09:27:30.029Z,947.68
2023-11-30T09:32:31.528Z,947.55
2023-11-30T09:37:33.460Z,947.52
2023-11-30T09:42:34.802Z,947.51
2023-11-30T09:47:36.761Z,947.44
2023-11-30T09:52:37.934Z,947.35
2023-11-30T10:53:06.138Z,946.33
2023-11-30T11:28:19.114Z,946.1
2023-11-30T12:28:39.195Z,945.54
2023-11-30T12:38:42.771Z,945.61
2023-11-30T12:43:44.192Z,945.68
2023-11-30T12:48:45.521Z,945.59
2023-11-30T12:53:47.175Z,945.68
2023-11-30T12:58:48.444Z,945.55
2023-11-30T13:03:50.124Z,945.6
2023-11-30T13:08:51.416Z,945.53
2023-11-30T13:13:55.005Z,945.6
2023-11-30T13:18:54.832Z,945.45
2023-11-30T13:23:56.408Z,945.55
2023-11-30T13:28:57.855Z,945.52
2023-11-30T13:33:59.478Z,945.51
2023-11-30T13:39:00.880Z,945.54
2023-11-30T13:44:02.707Z,945.65
2023-11-30T13:49:04.766Z,945.59
2023-11-30T13:54:06.311Z,945.62
2023-11-30T13:59:08.390Z,945.67
2023-11-30T14:04:09.872Z,945.6
2023-11-30T14:09:11.574Z,945.54
2023-11-30T14:14:12.835Z,945.56
2023-11-30T14:19:14.767Z,945.66
2023-11-30T14:24:16.942Z,945.61
2023-11-30T14:29:18.220Z,945.53
2023-11-30T14:34:19.757Z,945.57
2023-11-30T14:39:21.692Z,945.5
2023-11-30T14:44:23.468Z,945.49
2023-11-30T14:49:24.947Z,945.52
2023-11-30T14:54:26.693Z,945.33
2023-11-30T14:59:27.965Z,945.5
2023-11-30T15:04:29.858Z,945.71
2023-11-30T15:09:36.455Z,945.79
2023-11-30T15:14:33.273Z,945.75
2023-11-30T15:19:34.388Z,945.82
2023-11-30T15:24:35.754Z,945.8
2023-11-30T15:29:37.690Z,945.83
2023-11-30T15:34:38.929Z,945.71
2023-11-30T15:39:40.684Z,945.8
2023-11-30T15:44:42.102Z,945.8
2023-11-30T15:49:43.403Z,945.63
2023-11-30T15:54:45.022Z,945.67
2023-11-30T15:59:46.842Z,945.79
2023-11-30T16:04:48.217Z,945.63
2023-11-30T16:09:50.196Z,945.58
2023-11-30T16:14:52.061Z,945.62
2023-11-30T16:19:53.622Z,945.65
2023-11-30T16:24:55.017Z,945.78
2023-11-30T16:29:56.979Z,946
2023-11-30T16:34:59.078Z,945.84
2023-11-30T16:40:01.244Z,945.87
2023-11-30T16:45:02.613Z,945.86
2023-11-30T16:50:04.189Z,945.85
2023-11-30T16:55:05.710Z,945.95
2023-11-30T17:00:07.465Z,945.89
2023-11-30T17:05:09.171Z,946
2023-11-30T17:10:11.149Z,946
2023-11-30T17:15:13.079Z,945.91
2023-11-30T17:20:14.286Z,945.96
2023-11-30T17:25:16.075Z,945.82
2023-11-30T17:30:17.674Z,945.81
2023-11-30T17:35:19.059Z,945.8
2023-11-30T17:40:20.227Z,945.84
2023-11-30T17:45:21.798Z,945.86
2023-11-30T17:50:23.434Z,945.76
2023-11-30T17:55:25.036Z,945.65
2023-11-30T18:00:27.804Z,945.8
2023-11-30T18:05:28.085Z,945.78
2023-11-30T18:10:29.772Z,945.68
2023-11-30T18:15:31.744Z,945.61
2023-11-30T18:20:33.319Z,945.6
2023-11-30T18:25:35.305Z,945.58
2023-11-30T18:30:36.774Z,945.64
2023-11-30T18:35:38.030Z,945.74
2023-11-30T18:40:39.941Z,945.59
2023-11-30T18:45:41.999Z,945.71
2023-11-30T18:50:43.751Z,945.75
2023-11-30T18:55:45.055Z,945.68
2023-11-30T19:00:46.414Z,945.83
2023-11-30T19:05:48.251Z,945.77
2023-11-30T19:10:49.924Z,945.75
2023-11-30T19:15:51.255Z,945.83
2023-11-30T19:20:53.163Z,945.72
2023-11-30T19:25:54.508Z,945.62
2023-11-30T19:30:55.767Z,945.65
2023-11-30T19:35:57.649Z,945.56
2023-11-30T19:40:59.113Z,945.55
2023-11-30T19:46:03.050Z,945.52
2023-11-30T19:51:02.533Z,945.62
2023-11-30T19:56:04.647Z,945.7
2023-11-30T20:01:06.346Z,945.66
2023-11-30T20:06:07.865Z,945.61
2023-11-30T20:11:09.891Z,945.54
2023-11-30T20:16:11.757Z,945.68
2023-11-30T20:21:13.822Z,945.62
2023-11-30T20:26:15.392Z,945.68
2023-11-30T20:31:16.689Z,945.69
2023-11-30T20:36:18.287Z,945.83
2023-11-30T20:41:20.338Z,945.87
2023-11-30T20:46:21.901Z,945.87
2023-11-30T20:51:23.715Z,945.88
2023-11-30T20:56:30.663Z,945.8
2023-11-30T21:01:27.807Z,945.88
2023-11-30T21:06:29.377Z,945.89
2023-11-30T21:11:30.920Z,945.89
2023-11-30T21:16:32.182Z,945.9
2023-11-30T21:21:34.019Z,945.84
2023-11-30T21:26:35.768Z,945.89
2023-11-30T21:31:37.804Z,945.85
2023-11-30T21:36:39.334Z,945.82
2023-11-30T21:41:41.041Z,945.77
2023-11-30T21:46:42.643Z,945.85
2023-11-30T21:51:44.458Z,945.84
2023-11-30T21:56:46.398Z,945.76
2023-11-30T22:01:48.491Z,945.77
2023-11-30T22:06:49.570Z,945.8
2023-11-30T22:11:50.976Z,945.92
2023-11-30T22:16:52.886Z,946.03
2023-11-30T22:21:54.563Z,946.08
2023-11-30T22:26:56.131Z,946.04
2023-11-30T22:31:57.683Z,946.09
2023-11-30T22:36:59.327Z,945.97
2023-11-30T22:42:00.512Z,945.97
2023-11-30T22:47:02.547Z,945.94
2023-11-30T22:52:03.764Z,945.91
2023-11-30T22:57:05.195Z,945.87
2023-11-30T23:02:06.855Z,945.93
2023-11-30T23:07:08.117Z,945.97
2023-11-30T23:12:09.907Z,945.96
2023-11-30T23:17:12.043Z,946
2023-11-30T23:22:13.271Z,946.01
2023-11-30T23:27:14.810Z,946.02
2023-11-30T23:32:16.743Z,945.93
2023-11-30T23:37:18.247Z,945.96
2023-11-30T23:42:19.528Z,945.84
2023-11-30T23:47:21.607Z,945.9
2023-11-30T23:52:23.150Z,945.9
2023-11-30T23:57:24.773Z,945.78
